4XCWZ LLHZ-LLHZ

Flight info

Callsign 4XCWZ
Flight time 0h 4m
Altitude 800
Route CVFR
Aircraft C172/L-VD/A

Departure

Time 2026-04-24 13:51
Airport Herzliya Airport (LLHZ)

Arrival

Time 2026-04-24 13:56
Airport Herzliya Airport (LLHZ)
Time Latitude Longitude Altitude Speed Heading
2026-04-24 13:41 32.18204 34.82850 89 ft 0 kts 201°
2026-04-24 13:47 32.18194 34.82849 89 ft 6 kts 161°
2026-04-24 13:47 32.18178 34.82885 89 ft 6 kts 108°
2026-04-24 13:48 32.18143 34.82995 90 ft 23 kts 117°
2026-04-24 13:48 32.18068 34.83206 95 ft 32 kts 109°
2026-04-24 13:48 32.17987 34.83480 101 ft 38 kts 109°
2026-04-24 13:48 32.17898 34.83783 113 ft 34 kts 110°
2026-04-24 13:49 32.17881 34.83850 116 ft 0 kts 66°
2026-04-24 13:49 32.17892 34.83860 115 ft 7 kts 30°
2026-04-24 13:49 32.17942 34.83761 115 ft 36 kts 294°
2026-04-24 13:49 32.18067 34.83302 140 ft 73 kts 295°
2026-04-24 13:50 32.18288 34.82692 229 ft 87 kts 325°
2026-04-24 13:50 32.18901 34.82762 344 ft 95 kts 13°
2026-04-24 13:50 32.19151 34.82863 419 ft 95 kts 14°
2026-04-24 13:50 32.19463 34.83027 452 ft 102 kts 26°
2026-04-24 13:51 32.19903 34.83764 430 ft 126 kts 76°
2026-04-24 13:51 32.20035 34.84766 536 ft 122 kts 85°
2026-04-24 13:51 32.19798 34.85697 681 ft 122 kts 133°
2026-04-24 13:51 32.19080 34.86069 953 ft 112 kts 177°
2026-04-24 13:52 32.18331 34.85951 938 ft 107 kts 200°
2026-04-24 13:52 32.17711 34.85527 597 ft 90 kts 250°
2026-04-24 13:52 32.17607 34.84931 431 ft 65 kts 285°
2026-04-24 13:52 32.17729 34.84419 292 ft 67 kts 294°
2026-04-24 13:53 32.17888 34.83919 142 ft 62 kts 297°
2026-04-24 13:53 32.18019 34.83453 119 ft 68 kts 298°
2026-04-24 13:53 32.18231 34.82865 199 ft 84 kts 302°
2026-04-24 13:53 32.18770 34.82874 260 ft 93 kts 20°
2026-04-24 13:54 32.19334 34.83311 425 ft 102 kts 52°
2026-04-24 13:54 32.19324 34.84139 622 ft 115 kts 108°
2026-04-24 13:54 32.18966 34.85032 604 ft 121 kts 121°
2026-04-24 13:54 32.18324 34.85548 555 ft 103 kts 185°
2026-04-24 13:55 32.17763 34.85336 549 ft 79 kts 234°
2026-04-24 13:55 32.17641 34.84746 393 ft 73 kts 286°
2026-04-24 13:55 32.17801 34.84193 229 ft 69 kts 294°
2026-04-24 13:55 32.17957 34.83697 111 ft 59 kts 299°
2026-04-24 13:56 32.18052 34.83406 98 ft 24 kts 291°
2026-04-24 13:56 32.18054 34.83333 97 ft 3 kts 212°
2026-04-24 13:56 32.18047 34.83329 98 ft 5 kts 200°
2026-04-24 13:56 32.18037 34.83325 98 ft 9 kts 196°
2026-04-24 13:57 32.18019 34.83319 98 ft 0 kts 199°